sensor_id;sensor_type;location;lat;lon;timestamp;P1;durP1;ratioP1;P2;durP2;ratioP2
8859;SDS011;4466;50.948;4.832;2024-03-23T00:52:47;10.33;;;3.07;;
8859;SDS011;4466;50.948;4.832;2024-03-23T00:55:13;9.43;;;2.53;;
8859;SDS011;4466;50.948;4.832;2024-03-23T00:57:39;13.63;;;2.47;;
8859;SDS011;4466;50.948;4.832;2024-03-23T01:00:05;9.60;;;2.90;;
8859;SDS011;4466;50.948;4.832;2024-03-23T01:02:34;9.70;;;3.20;;
8859;SDS011;4466;50.948;4.832;2024-03-23T01:04:59;9.13;;;3.20;;
8859;SDS011;4466;50.948;4.832;2024-03-23T01:07:25;10.40;;;3.07;;
8859;SDS011;4466;50.948;4.832;2024-03-23T01:09:51;11.63;;;2.77;;
8859;SDS011;4466;50.948;4.832;2024-03-23T01:12:18;10.57;;;2.60;;
8859;SDS011;4466;50.948;4.832;2024-03-23T01:14:43;13.63;;;2.77;;
8859;SDS011;4466;50.948;4.832;2024-03-23T01:17:09;13.10;;;3.10;;
8859;SDS011;4466;50.948;4.832;2024-03-23T01:19:35;12.27;;;3.10;;
8859;SDS011;4466;50.948;4.832;2024-03-23T01:22:01;10.80;;;2.77;;
8859;SDS011;4466;50.948;4.832;2024-03-23T01:24:26;9.13;;;2.77;;
8859;SDS011;4466;50.948;4.832;2024-03-23T01:26:52;10.80;;;2.93;;
8859;SDS011;4466;50.948;4.832;2024-03-23T01:29:17;12.47;;;2.97;;
8859;SDS011;4466;50.948;4.832;2024-03-23T01:31:43;8.90;;;2.70;;
8859;SDS011;4466;50.948;4.832;2024-03-23T01:34:09;12.23;;;3.10;;
8859;SDS011;4466;50.948;4.832;2024-03-23T01:36:34;10.90;;;2.87;;
8859;SDS011;4466;50.948;4.832;2024-03-23T01:39:00;20.30;;;3.70;;
8859;SDS011;4466;50.948;4.832;2024-03-23T01:41:26;12.80;;;3.10;;
8859;SDS011;4466;50.948;4.832;2024-03-23T01:43:51;11.17;;;3.27;;
8859;SDS011;4466;50.948;4.832;2024-03-23T01:46:20;10.37;;;3.40;;
8859;SDS011;4466;50.948;4.832;2024-03-23T01:48:45;16.27;;;3.63;;
8859;SDS011;4466;50.948;4.832;2024-03-23T01:51:12;10.07;;;2.60;;
8859;SDS011;4466;50.948;4.832;2024-03-23T01:53:38;11.10;;;2.77;;
8859;SDS011;4466;50.948;4.832;2024-03-23T01:56:04;10.97;;;2.77;;
8859;SDS011;4466;50.948;4.832;2024-03-23T01:58:30;11.03;;;3.40;;
8859;SDS011;4466;50.948;4.832;2024-03-23T02:00:57;10.67;;;3.03;;
8859;SDS011;4466;50.948;4.832;2024-03-23T02:03:26;11.53;;;2.63;;
8859;SDS011;4466;50.948;4.832;2024-03-23T02:08:27;8.97;;;2.57;;
8859;SDS011;4466;50.948;4.832;2024-03-23T02:10:54;13.47;;;3.13;;
8859;SDS011;4466;50.948;4.832;2024-03-23T02:13:20;10.47;;;3.00;;
8859;SDS011;4466;50.948;4.832;2024-03-23T02:15:45;10.87;;;2.70;;
8859;SDS011;4466;50.948;4.832;2024-03-23T02:18:11;11.57;;;2.87;;
8859;SDS011;4466;50.948;4.832;2024-03-23T02:20:37;11.13;;;2.80;;
8859;SDS011;4466;50.948;4.832;2024-03-23T02:23:03;12.83;;;2.97;;
8859;SDS011;4466;50.948;4.832;2024-03-23T02:25:31;9.47;;;2.90;;
8859;SDS011;4466;50.948;4.832;2024-03-23T02:27:58;11.47;;;3.07;;
8859;SDS011;4466;50.948;4.832;2024-03-23T02:30:24;10.80;;;3.20;;
8859;SDS011;4466;50.948;4.832;2024-03-23T02:32:50;10.33;;;3.00;;
8859;SDS011;4466;50.948;4.832;2024-03-23T02:35:16;10.80;;;3.10;;
8859;SDS011;4466;50.948;4.832;2024-03-23T02:37:41;11.33;;;3.70;;
8859;SDS011;4466;50.948;4.832;2024-03-23T02:40:07;14.77;;;4.03;;
8859;SDS011;4466;50.948;4.832;2024-03-23T02:42:33;14.80;;;3.50;;
8859;SDS011;4466;50.948;4.832;2024-03-23T02:44:59;12.40;;;3.60;;
8859;SDS011;4466;50.948;4.832;2024-03-23T02:47:25;9.20;;;3.37;;
8859;SDS011;4466;50.948;4.832;2024-03-23T02:49:50;12.77;;;4.33;;
8859;SDS011;4466;50.948;4.832;2024-03-23T02:52:16;13.37;;;3.87;;
8859;SDS011;4466;50.948;4.832;2024-03-23T02:54:42;14.10;;;4.17;;
8859;SDS011;4466;50.948;4.832;2024-03-23T02:57:09;12.80;;;4.50;;
8859;SDS011;4466;50.948;4.832;2024-03-23T02:59:35;11.87;;;4.50;;
8859;SDS011;4466;50.948;4.832;2024-03-23T03:02:01;14.57;;;4.57;;
8859;SDS011;4466;50.948;4.832;2024-03-23T03:04:29;13.63;;;4.30;;
8859;SDS011;4466;50.948;4.832;2024-03-23T03:06:55;13.03;;;4.47;;
8859;SDS011;4466;50.948;4.832;2024-03-23T03:09:21;11.23;;;4.27;;
8859;SDS011;4466;50.948;4.832;2024-03-23T03:11:46;12.13;;;4.70;;
8859;SDS011;4466;50.948;4.832;2024-03-23T03:14:12;11.97;;;4.57;;
8859;SDS011;4466;50.948;4.832;2024-03-23T03:16:38;17.57;;;4.80;;
8859;SDS011;4466;50.948;4.832;2024-03-23T03:19:03;17.00;;;5.03;;
8859;SDS011;4466;50.948;4.832;2024-03-23T03:21:29;12.80;;;5.20;;
8859;SDS011;4466;50.948;4.832;2024-03-23T03:23:55;12.53;;;4.97;;
8859;SDS011;4466;50.948;4.832;2024-03-23T03:26:22;14.17;;;5.20;;
8859;SDS011;4466;50.948;4.832;2024-03-23T03:28:47;12.70;;;5.10;;
8859;SDS011;4466;50.948;4.832;2024-03-23T03:31:17;11.73;;;5.00;;
8859;SDS011;4466;50.948;4.832;2024-03-23T03:33:43;10.93;;;5.50;;
8859;SDS011;4466;50.948;4.832;2024-03-23T03:36:09;15.93;;;6.07;;
8859;SDS011;4466;50.948;4.832;2024-03-23T03:38:35;12.20;;;5.37;;
8859;SDS011;4466;50.948;4.832;2024-03-23T03:41:01;15.20;;;5.70;;
8859;SDS011;4466;50.948;4.832;2024-03-23T03:43:27;12.93;;;5.53;;
8859;SDS011;4466;50.948;4.832;2024-03-23T03:45:53;11.77;;;5.10;;
8859;SDS011;4466;50.948;4.832;2024-03-23T03:48:19;21.90;;;6.03;;
8859;SDS011;4466;50.948;4.832;2024-03-23T03:50:45;17.43;;;6.27;;
8859;SDS011;4466;50.948;4.832;2024-03-23T03:53:10;16.60;;;6.27;;
8859;SDS011;4466;50.948;4.832;2024-03-23T03:55:36;12.53;;;5.63;;
8859;SDS011;4466;50.948;4.832;2024-03-23T03:58:02;14.17;;;6.10;;
8859;SDS011;4466;50.948;4.832;2024-03-23T04:00:28;16.40;;;6.17;;
8859;SDS011;4466;50.948;4.832;2024-03-23T04:02:53;12.67;;;5.70;;
8859;SDS011;4466;50.948;4.832;2024-03-23T04:05:19;15.53;;;6.27;;
8859;SDS011;4466;50.948;4.832;2024-03-23T04:07:45;12.07;;;5.93;;
8859;SDS011;4466;50.948;4.832;2024-03-23T04:10:10;12.60;;;6.20;;
8859;SDS011;4466;50.948;4.832;2024-03-23T04:12:36;16.80;;;5.90;;
8859;SDS011;4466;50.948;4.832;2024-03-23T04:15:02;15.67;;;5.97;;
8859;SDS011;4466;50.948;4.832;2024-03-23T04:17:29;15.90;;;6.17;;
8859;SDS011;4466;50.948;4.832;2024-03-23T04:19:58;15.83;;;6.07;;
8859;SDS011;4466;50.948;4.832;2024-03-23T04:22:23;14.47;;;5.80;;
8859;SDS011;4466;50.948;4.832;2024-03-23T04:24:52;13.97;;;5.87;;
8859;SDS011;4466;50.948;4.832;2024-03-23T04:27:19;17.00;;;6.17;;
8859;SDS011;4466;50.948;4.832;2024-03-23T04:29:48;18.97;;;6.83;;
8859;SDS011;4466;50.948;4.832;2024-03-23T04:32:15;14.77;;;6.13;;
8859;SDS011;4466;50.948;4.832;2024-03-23T04:34:41;15.77;;;6.03;;
8859;SDS011;4466;50.948;4.832;2024-03-23T04:37:07;15.70;;;5.97;;
8859;SDS011;4466;50.948;4.832;2024-03-23T04:39:32;15.33;;;6.90;;
8859;SDS011;4466;50.948;4.832;2024-03-23T04:41:58;14.27;;;5.80;;
8859;SDS011;4466;50.948;4.832;2024-03-23T04:44:24;16.87;;;6.20;;
8859;SDS011;4466;50.948;4.832;2024-03-23T04:46:49;13.93;;;6.23;;
8859;SDS011;4466;50.948;4.832;2024-03-23T04:49:15;13.40;;;6.07;;
8859;SDS011;4466;50.948;4.832;2024-03-23T04:51:41;22.53;;;6.30;;
8859;SDS011;4466;50.948;4.832;2024-03-23T04:54:11;17.20;;;5.77;;
8859;SDS011;4466;50.948;4.832;2024-03-23T04:56:39;15.73;;;6.40;;
8859;SDS011;4466;50.948;4.832;2024-03-23T04:59:05;14.27;;;6.30;;
8859;SDS011;4466;50.948;4.832;2024-03-23T05:01:31;14.00;;;6.13;;
8859;SDS011;4466;50.948;4.832;2024-03-23T05:03:57;15.23;;;6.23;;
8859;SDS011;4466;50.948;4.832;2024-03-23T05:06:23;19.93;;;6.00;;
8859;SDS011;4466;50.948;4.832;2024-03-23T05:08:49;18.43;;;6.23;;
8859;SDS011;4466;50.948;4.832;2024-03-23T05:11:15;17.93;;;5.43;;
8859;SDS011;4466;50.948;4.832;2024-03-23T05:13:41;15.67;;;6.33;;
8859;SDS011;4466;50.948;4.832;2024-03-23T05:16:07;14.80;;;6.70;;
8859;SDS011;4466;50.948;4.832;2024-03-23T05:18:33;14.07;;;5.83;;
8859;SDS011;4466;50.948;4.832;2024-03-23T05:20:59;17.43;;;6.53;;
8859;SDS011;4466;50.948;4.832;2024-03-23T05:23:25;17.17;;;6.17;;
8859;SDS011;4466;50.948;4.832;2024-03-23T05:25:51;19.10;;;6.70;;
8859;SDS011;4466;50.948;4.832;2024-03-23T05:28:17;20.87;;;6.37;;
8859;SDS011;4466;50.948;4.832;2024-03-23T05:30:43;21.10;;;6.87;;
8859;SDS011;4466;50.948;4.832;2024-03-23T05:33:09;14.10;;;5.83;;
8859;SDS011;4466;50.948;4.832;2024-03-23T05:35:34;15.93;;;6.13;;
8859;SDS011;4466;50.948;4.832;2024-03-23T05:38:00;19.13;;;6.73;;
8859;SDS011;4466;50.948;4.832;2024-03-23T05:40:26;17.03;;;6.20;;
8859;SDS011;4466;50.948;4.832;2024-03-23T05:42:52;18.13;;;6.10;;
8859;SDS011;4466;50.948;4.832;2024-03-23T05:45:18;19.53;;;6.33;;
8859;SDS011;4466;50.948;4.832;2024-03-23T05:47:44;15.17;;;5.57;;
8859;SDS011;4466;50.948;4.832;2024-03-23T05:50:10;15.10;;;5.57;;
8859;SDS011;4466;50.948;4.832;2024-03-23T05:52:37;16.93;;;5.63;;
8859;SDS011;4466;50.948;4.832;2024-03-23T05:55:04;17.20;;;5.63;;
8859;SDS011;4466;50.948;4.832;2024-03-23T05:57:30;12.70;;;5.43;;
8859;SDS011;4466;50.948;4.832;2024-03-23T05:59:56;11.23;;;4.50;;
8859;SDS011;4466;50.948;4.832;2024-03-23T06:02:22;14.40;;;5.50;;
8859;SDS011;4466;50.948;4.832;2024-03-23T06:04:49;13.50;;;5.13;;
8859;SDS011;4466;50.948;4.832;2024-03-23T06:07:14;17.57;;;4.77;;
8859;SDS011;4466;50.948;4.832;2024-03-23T06:09:41;12.70;;;5.00;;
8859;SDS011;4466;50.948;4.832;2024-03-23T06:12:07;12.03;;;4.53;;
8859;SDS011;4466;50.948;4.832;2024-03-23T06:14:34;12.07;;;4.10;;
8859;SDS011;4466;50.948;4.832;2024-03-23T06:17:00;20.43;;;4.80;;
8859;SDS011;4466;50.948;4.832;2024-03-23T06:19:26;11.30;;;4.23;;
8859;SDS011;4466;50.948;4.832;2024-03-23T06:21:53;13.87;;;4.13;;
8859;SDS011;4466;50.948;4.832;2024-03-23T06:24:20;16.80;;;4.60;;
8859;SDS011;4466;50.948;4.832;2024-03-23T06:26:46;14.23;;;4.20;;
8859;SDS011;4466;50.948;4.832;2024-03-23T06:29:12;13.83;;;4.33;;
8859;SDS011;4466;50.948;4.832;2024-03-23T06:31:38;16.37;;;4.73;;
8859;SDS011;4466;50.948;4.832;2024-03-23T06:34:04;13.33;;;5.30;;
8859;SDS011;4466;50.948;4.832;2024-03-23T06:36:29;11.43;;;4.17;;
8859;SDS011;4466;50.948;4.832;2024-03-23T06:38:55;8.87;;;4.13;;
8859;SDS011;4466;50.948;4.832;2024-03-23T06:41:21;11.03;;;4.83;;
8859;SDS011;4466;50.948;4.832;2024-03-23T06:43:47;11.17;;;4.60;;
8859;SDS011;4466;50.948;4.832;2024-03-23T06:46:13;10.53;;;4.20;;
8859;SDS011;4466;50.948;4.832;2024-03-23T06:48:39;13.37;;;4.20;;
8859;SDS011;4466;50.948;4.832;2024-03-23T06:51:04;13.23;;;4.80;;
8859;SDS011;4466;50.948;4.832;2024-03-23T06:53:31;13.47;;;4.30;;
8859;SDS011;4466;50.948;4.832;2024-03-23T06:55:57;14.70;;;4.37;;
8859;SDS011;4466;50.948;4.832;2024-03-23T06:58:23;13.53;;;3.73;;
8859;SDS011;4466;50.948;4.832;2024-03-23T07:00:49;9.97;;;3.87;;
8859;SDS011;4466;50.948;4.832;2024-03-23T07:03:19;11.73;;;3.77;;
8859;SDS011;4466;50.948;4.832;2024-03-23T07:05:45;13.10;;;3.90;;
8859;SDS011;4466;50.948;4.832;2024-03-23T07:08:11;14.17;;;3.60;;
8859;SDS011;4466;50.948;4.832;2024-03-23T07:10:39;13.47;;;4.20;;
8859;SDS011;4466;50.948;4.832;2024-03-23T07:13:05;12.07;;;3.30;;
8859;SDS011;4466;50.948;4.832;2024-03-23T07:15:30;11.50;;;2.73;;
8859;SDS011;4466;50.948;4.832;2024-03-23T07:17:56;11.77;;;3.37;;
8859;SDS011;4466;50.948;4.832;2024-03-23T07:20:22;11.97;;;3.33;;
8859;SDS011;4466;50.948;4.832;2024-03-23T07:22:47;10.40;;;3.20;;
8859;SDS011;4466;50.948;4.832;2024-03-23T07:25:13;12.10;;;3.17;;
8859;SDS011;4466;50.948;4.832;2024-03-23T07:27:39;8.87;;;3.90;;
8859;SDS011;4466;50.948;4.832;2024-03-23T07:30:05;14.67;;;3.87;;
8859;SDS011;4466;50.948;4.832;2024-03-23T07:32:31;9.27;;;2.70;;
8859;SDS011;4466;50.948;4.832;2024-03-23T07:34:57;10.57;;;2.53;;
8859;SDS011;4466;50.948;4.832;2024-03-23T07:37:22;11.50;;;3.10;;
8859;SDS011;4466;50.948;4.832;2024-03-23T07:39:48;8.20;;;2.97;;
8859;SDS011;4466;50.948;4.832;2024-03-23T07:42:14;10.13;;;2.77;;
8859;SDS011;4466;50.948;4.832;2024-03-23T07:44:39;10.37;;;2.50;;
8859;SDS011;4466;50.948;4.832;2024-03-23T07:47:05;8.23;;;2.33;;
8859;SDS011;4466;50.948;4.832;2024-03-23T07:49:30;9.87;;;2.80;;
8859;SDS011;4466;50.948;4.832;2024-03-23T07:51:56;11.13;;;2.70;;
8859;SDS011;4466;50.948;4.832;2024-03-23T07:54:22;10.13;;;2.40;;
8859;SDS011;4466;50.948;4.832;2024-03-23T07:56:47;9.83;;;2.60;;
8859;SDS011;4466;50.948;4.832;2024-03-23T07:59:13;11.50;;;2.83;;
8859;SDS011;4466;50.948;4.832;2024-03-23T08:01:39;10.47;;;2.63;;
8859;SDS011;4466;50.948;4.832;2024-03-23T08:04:05;7.63;;;2.20;;
8859;SDS011;4466;50.948;4.832;2024-03-23T08:06:31;7.73;;;2.30;;
8859;SDS011;4466;50.948;4.832;2024-03-23T08:08:57;8.13;;;2.00;;
8859;SDS011;4466;50.948;4.832;2024-03-23T08:11:26;6.50;;;2.03;;
8859;SDS011;4466;50.948;4.832;2024-03-23T08:13:53;8.93;;;1.83;;
8859;SDS011;4466;50.948;4.832;2024-03-23T08:16:19;7.47;;;2.00;;
8859;SDS011;4466;50.948;4.832;2024-03-23T08:18:44;5.37;;;2.00;;
8859;SDS011;4466;50.948;4.832;2024-03-23T08:21:10;5.37;;;1.77;;
8859;SDS011;4466;50.948;4.832;2024-03-23T08:23:36;7.20;;;1.80;;
8859;SDS011;4466;50.948;4.832;2024-03-23T08:26:08;9.03;;;2.30;;
8859;SDS011;4466;50.948;4.832;2024-03-23T08:28:35;8.37;;;2.23;;
8859;SDS011;4466;50.948;4.832;2024-03-23T08:31:02;9.33;;;2.00;;
8859;SDS011;4466;50.948;4.832;2024-03-23T08:33:30;9.83;;;2.60;;
8859;SDS011;4466;50.948;4.832;2024-03-23T08:36:00;8.50;;;2.43;;
8859;SDS011;4466;50.948;4.832;2024-03-23T08:38:28;10.00;;;3.07;;
8859;SDS011;4466;50.948;4.832;2024-03-23T08:41:03;12.30;;;2.33;;
8859;SDS011;4466;50.948;4.832;2024-03-23T08:43:30;7.97;;;2.40;;
8859;SDS011;4466;50.948;4.832;2024-03-23T08:46:30;13.03;;;3.00;;
8859;SDS011;4466;50.948;4.832;2024-03-23T08:48:49;9.07;;;2.23;;
8859;SDS011;4466;50.948;4.832;2024-03-23T08:51:17;8.27;;;2.10;;
8859;SDS011;4466;50.948;4.832;2024-03-23T08:53:43;13.60;;;2.70;;
8859;SDS011;4466;50.948;4.832;2024-03-23T08:56:09;5.97;;;1.87;;
8859;SDS011;4466;50.948;4.832;2024-03-23T08:58:36;11.23;;;2.50;;
8859;SDS011;4466;50.948;4.832;2024-03-23T09:01:13;9.43;;;2.33;;
8859;SDS011;4466;50.948;4.832;2024-03-23T09:03:38;10.47;;;2.40;;
8859;SDS011;4466;50.948;4.832;2024-03-23T09:06:11;8.90;;;2.20;;
8859;SDS011;4466;50.948;4.832;2024-03-23T09:08:38;9.50;;;2.33;;
8859;SDS011;4466;50.948;4.832;2024-03-23T09:11:09;6.40;;;2.00;;
8859;SDS011;4466;50.948;4.832;2024-03-23T09:13:37;8.23;;;2.43;;
8859;SDS011;4466;50.948;4.832;2024-03-23T09:16:03;8.60;;;2.10;;
8859;SDS011;4466;50.948;4.832;2024-03-23T09:18:34;7.33;;;2.20;;
8859;SDS011;4466;50.948;4.832;2024-03-23T09:21:01;9.37;;;2.33;;
8859;SDS011;4466;50.948;4.832;2024-03-23T09:23:36;8.50;;;2.30;;
8859;SDS011;4466;50.948;4.832;2024-03-23T09:26:04;9.87;;;2.50;;
8859;SDS011;4466;50.948;4.832;2024-03-23T09:28:32;10.80;;;2.63;;
8859;SDS011;4466;50.948;4.832;2024-03-23T09:31:04;6.03;;;2.10;;
8859;SDS011;4466;50.948;4.832;2024-03-23T09:33:32;6.80;;;2.70;;
8859;SDS011;4466;50.948;4.832;2024-03-23T09:35:58;11.07;;;2.67;;
8859;SDS011;4466;50.948;4.832;2024-03-23T09:38:29;6.87;;;2.20;;
8859;SDS011;4466;50.948;4.832;2024-03-23T09:40:54;9.67;;;2.33;;
8859;SDS011;4466;50.948;4.832;2024-03-23T09:43:20;8.00;;;2.20;;
8859;SDS011;4466;50.948;4.832;2024-03-23T09:45:46;10.10;;;2.37;;
8859;SDS011;4466;50.948;4.832;2024-03-23T09:48:12;8.87;;;2.30;;
8859;SDS011;4466;50.948;4.832;2024-03-23T09:50:38;7.83;;;2.10;;
8859;SDS011;4466;50.948;4.832;2024-03-23T09:53:09;10.00;;;2.13;;
8859;SDS011;4466;50.948;4.832;2024-03-23T09:55:38;7.93;;;2.17;;
8859;SDS011;4466;50.948;4.832;2024-03-23T09:58:05;8.90;;;1.90;;
8859;SDS011;4466;50.948;4.832;2024-03-23T10:00:31;7.77;;;1.90;;
8859;SDS011;4466;50.948;4.832;2024-03-23T10:02:58;7.33;;;2.00;;
8859;SDS011;4466;50.948;4.832;2024-03-23T10:05:27;7.40;;;1.93;;
8859;SDS011;4466;50.948;4.832;2024-03-23T10:07:54;5.67;;;2.00;;
8859;SDS011;4466;50.948;4.832;2024-03-23T10:10:19;9.77;;;1.90;;
8859;SDS011;4466;50.948;4.832;2024-03-23T10:12:49;5.63;;;1.70;;
8859;SDS011;4466;50.948;4.832;2024-03-23T10:15:19;7.20;;;1.90;;
8859;SDS011;4466;50.948;4.832;2024-03-23T10:17:48;6.03;;;1.60;;
8859;SDS011;4466;50.948;4.832;2024-03-23T10:20:23;5.23;;;1.20;;
8859;SDS011;4466;50.948;4.832;2024-03-23T10:22:49;6.67;;;1.77;;
8859;SDS011;4466;50.948;4.832;2024-03-23T10:25:16;5.47;;;1.47;;
8859;SDS011;4466;50.948;4.832;2024-03-23T10:27:42;4.10;;;1.57;;
8859;SDS011;4466;50.948;4.832;2024-03-23T10:30:15;5.37;;;1.53;;
8859;SDS011;4466;50.948;4.832;2024-03-23T10:32:41;7.43;;;2.10;;
8859;SDS011;4466;50.948;4.832;2024-03-23T10:35:17;9.87;;;3.13;;
8859;SDS011;4466;50.948;4.832;2024-03-23T10:37:44;3.93;;;1.70;;
8859;SDS011;4466;50.948;4.832;2024-03-23T10:40:12;5.70;;;1.87;;
8859;SDS011;4466;50.948;4.832;2024-03-23T10:42:38;9.27;;;1.70;;
8859;SDS011;4466;50.948;4.832;2024-03-23T10:45:05;3.47;;;1.30;;
8859;SDS011;4466;50.948;4.832;2024-03-23T10:47:31;6.03;;;1.80;;
8859;SDS011;4466;50.948;4.832;2024-03-23T10:49:57;4.30;;;1.50;;
8859;SDS011;4466;50.948;4.832;2024-03-23T10:52:23;9.07;;;2.00;;
8859;SDS011;4466;50.948;4.832;2024-03-23T10:54:50;4.40;;;1.47;;
8859;SDS011;4466;50.948;4.832;2024-03-23T10:57:17;5.20;;;1.70;;
8859;SDS011;4466;50.948;4.832;2024-03-23T10:59:48;7.23;;;2.33;;
8859;SDS011;4466;50.948;4.832;2024-03-23T11:02:21;6.30;;;1.90;;
8859;SDS011;4466;50.948;4.832;2024-03-23T11:04:47;6.30;;;1.77;;
8859;SDS011;4466;50.948;4.832;2024-03-23T11:09:56;3.37;;;1.47;;
8859;SDS011;4466;50.948;4.832;2024-03-23T11:14:56;5.10;;;1.53;;
8859;SDS011;4466;50.948;4.832;2024-03-23T11:17:28;11.13;;;2.00;;
8859;SDS011;4466;50.948;4.832;2024-03-23T11:20:00;80.27;;;4.63;;
8859;SDS011;4466;50.948;4.832;2024-03-23T11:27:45;3.47;;;1.10;;
8859;SDS011;4466;50.948;4.832;2024-03-23T11:32:38;3.60;;;1.33;;
8859;SDS011;4466;50.948;4.832;2024-03-23T11:35:04;3.27;;;1.63;;
8859;SDS011;4466;50.948;4.832;2024-03-23T11:37:30;4.40;;;1.77;;
8859;SDS011;4466;50.948;4.832;2024-03-23T11:39:56;4.97;;;1.90;;
8859;SDS011;4466;50.948;4.832;2024-03-23T11:42:22;6.47;;;2.10;;
8859;SDS011;4466;50.948;4.832;2024-03-23T11:44:47;8.27;;;3.07;;
8859;SDS011;4466;50.948;4.832;2024-03-23T11:47:13;5.40;;;2.40;;
8859;SDS011;4466;50.948;4.832;2024-03-23T11:49:38;3.97;;;2.10;;
8859;SDS011;4466;50.948;4.832;2024-03-23T11:52:06;6.43;;;2.40;;
8859;SDS011;4466;50.948;4.832;2024-03-23T11:54:32;7.70;;;2.33;;
8859;SDS011;4466;50.948;4.832;2024-03-23T11:57:07;5.40;;;2.30;;
8859;SDS011;4466;50.948;4.832;2024-03-23T11:59:34;6.43;;;2.33;;
8859;SDS011;4466;50.948;4.832;2024-03-23T12:02:08;5.53;;;2.00;;
8859;SDS011;4466;50.948;4.832;2024-03-23T12:04:40;7.60;;;1.87;;
8859;SDS011;4466;50.948;4.832;2024-03-23T12:09:44;5.17;;;2.00;;
8859;SDS011;4466;50.948;4.832;2024-03-23T12:12:13;7.53;;;1.93;;
8859;SDS011;4466;50.948;4.832;2024-03-23T12:14:41;5.20;;;1.70;;
8859;SDS011;4466;50.948;4.832;2024-03-23T12:17:13;9.03;;;1.80;;
8859;SDS011;4466;50.948;4.832;2024-03-23T12:19:40;4.53;;;1.37;;
8859;SDS011;4466;50.948;4.832;2024-03-23T12:22:07;5.33;;;1.80;;
8859;SDS011;4466;50.948;4.832;2024-03-23T12:24:33;4.83;;;1.80;;
8859;SDS011;4466;50.948;4.832;2024-03-23T12:27:00;4.10;;;1.40;;
8859;SDS011;4466;50.948;4.832;2024-03-23T12:29:30;2.67;;;1.07;;
8859;SDS011;4466;50.948;4.832;2024-03-23T12:31:59;4.63;;;1.30;;
8859;SDS011;4466;50.948;4.832;2024-03-23T12:34:25;4.37;;;1.33;;
8859;SDS011;4466;50.948;4.832;2024-03-23T12:36:51;3.93;;;1.10;;
8859;SDS011;4466;50.948;4.832;2024-03-23T12:39:17;6.50;;;1.33;;
8859;SDS011;4466;50.948;4.832;2024-03-23T12:41:43;5.87;;;1.60;;
8859;SDS011;4466;50.948;4.832;2024-03-23T12:44:09;3.73;;;1.30;;
8859;SDS011;4466;50.948;4.832;2024-03-23T12:46:37;4.40;;;1.37;;
8859;SDS011;4466;50.948;4.832;2024-03-23T12:49:03;4.50;;;1.20;;
8859;SDS011;4466;50.948;4.832;2024-03-23T12:51:28;6.10;;;1.30;;
8859;SDS011;4466;50.948;4.832;2024-03-23T12:53:54;4.80;;;1.40;;
8859;SDS011;4466;50.948;4.832;2024-03-23T12:56:20;6.00;;;1.60;;
8859;SDS011;4466;50.948;4.832;2024-03-23T12:58:45;6.40;;;1.80;;
8859;SDS011;4466;50.948;4.832;2024-03-23T13:01:16;5.17;;;1.40;;
8859;SDS011;4466;50.948;4.832;2024-03-23T13:03:42;3.37;;;1.10;;
8859;SDS011;4466;50.948;4.832;2024-03-23T13:06:09;2.93;;;0.90;;
8859;SDS011;4466;50.948;4.832;2024-03-23T13:08:35;3.73;;;0.90;;
8859;SDS011;4466;50.948;4.832;2024-03-23T13:11:01;4.20;;;1.50;;
8859;SDS011;4466;50.948;4.832;2024-03-23T13:13:26;2.73;;;1.00;;
8859;SDS011;4466;50.948;4.832;2024-03-23T13:15:52;4.33;;;1.10;;
8859;SDS011;4466;50.948;4.832;2024-03-23T13:18:17;2.67;;;0.90;;
8859;SDS011;4466;50.948;4.832;2024-03-23T13:20:43;3.30;;;1.03;;
8859;SDS011;4466;50.948;4.832;2024-03-23T13:23:09;3.33;;;1.20;;
8859;SDS011;4466;50.948;4.832;2024-03-23T13:25:35;5.90;;;1.40;;
8859;SDS011;4466;50.948;4.832;2024-03-23T13:28:02;5.00;;;1.50;;
8859;SDS011;4466;50.948;4.832;2024-03-23T13:30:28;3.50;;;1.13;;
8859;SDS011;4466;50.948;4.832;2024-03-23T13:32:54;3.73;;;1.30;;
8859;SDS011;4466;50.948;4.832;2024-03-23T13:35:20;5.73;;;1.20;;
8859;SDS011;4466;50.948;4.832;2024-03-23T13:37:48;3.53;;;1.17;;
8859;SDS011;4466;50.948;4.832;2024-03-23T13:40:14;4.60;;;1.10;;
8859;SDS011;4466;50.948;4.832;2024-03-23T13:42:39;6.57;;;1.63;;
8859;SDS011;4466;50.948;4.832;2024-03-23T13:45:05;4.97;;;1.37;;
8859;SDS011;4466;50.948;4.832;2024-03-23T13:47:31;4.10;;;1.30;;
8859;SDS011;4466;50.948;4.832;2024-03-23T13:49:57;3.97;;;1.23;;
8859;SDS011;4466;50.948;4.832;2024-03-23T13:52:23;7.03;;;1.40;;
8859;SDS011;4466;50.948;4.832;2024-03-23T13:54:50;6.33;;;1.47;;
8859;SDS011;4466;50.948;4.832;2024-03-23T13:57:17;6.43;;;1.50;;
8859;SDS011;4466;50.948;4.832;2024-03-23T13:59:45;7.03;;;1.40;;
8859;SDS011;4466;50.948;4.832;2024-03-23T14:02:11;6.27;;;1.50;;
8859;SDS011;4466;50.948;4.832;2024-03-23T14:04:39;3.83;;;1.30;;
8859;SDS011;4466;50.948;4.832;2024-03-23T14:07:05;5.33;;;1.13;;
8859;SDS011;4466;50.948;4.832;2024-03-23T14:09:32;6.00;;;1.47;;
8859;SDS011;4466;50.948;4.832;2024-03-23T14:11:57;6.63;;;1.50;;
8859;SDS011;4466;50.948;4.832;2024-03-23T14:14:25;4.53;;;1.07;;
8859;SDS011;4466;50.948;4.832;2024-03-23T14:16:50;5.77;;;1.53;;
8859;SDS011;4466;50.948;4.832;2024-03-23T14:19:16;5.43;;;1.50;;
8859;SDS011;4466;50.948;4.832;2024-03-23T14:21:42;5.00;;;1.30;;
8859;SDS011;4466;50.948;4.832;2024-03-23T14:24:07;5.00;;;1.50;;
8859;SDS011;4466;50.948;4.832;2024-03-23T14:26:34;5.23;;;1.53;;
8859;SDS011;4466;50.948;4.832;2024-03-23T14:29:00;5.30;;;1.33;;
8859;SDS011;4466;50.948;4.832;2024-03-23T14:31:26;7.23;;;1.50;;
8859;SDS011;4466;50.948;4.832;2024-03-23T14:33:51;5.90;;;1.80;;
8859;SDS011;4466;50.948;4.832;2024-03-23T14:36:17;3.77;;;1.03;;
8859;SDS011;4466;50.948;4.832;2024-03-23T14:38:52;5.90;;;1.40;;
8859;SDS011;4466;50.948;4.832;2024-03-23T14:41:17;6.50;;;1.63;;
8859;SDS011;4466;50.948;4.832;2024-03-23T14:43:43;3.53;;;1.20;;
8859;SDS011;4466;50.948;4.832;2024-03-23T14:46:12;4.07;;;1.20;;
8859;SDS011;4466;50.948;4.832;2024-03-23T14:48:39;2.03;;;1.03;;
8859;SDS011;4466;50.948;4.832;2024-03-23T14:51:06;3.87;;;1.10;;
8859;SDS011;4466;50.948;4.832;2024-03-23T14:53:35;4.80;;;1.07;;
8859;SDS011;4466;50.948;4.832;2024-03-23T14:56:05;4.90;;;1.10;;
8859;SDS011;4466;50.948;4.832;2024-03-23T14:58:31;4.20;;;1.10;;
8859;SDS011;4466;50.948;4.832;2024-03-23T15:01:01;3.47;;;1.20;;
8859;SDS011;4466;50.948;4.832;2024-03-23T15:03:27;2.80;;;1.20;;
8859;SDS011;4466;50.948;4.832;2024-03-23T15:05:58;5.23;;;1.10;;
8859;SDS011;4466;50.948;4.832;2024-03-23T15:08:25;3.77;;;1.03;;
8859;SDS011;4466;50.948;4.832;2024-03-23T15:10:52;2.77;;;1.00;;
8859;SDS011;4466;50.948;4.832;2024-03-23T15:13:18;2.33;;;1.13;;
8859;SDS011;4466;50.948;4.832;2024-03-23T15:15:44;3.43;;;1.10;;
8859;SDS011;4466;50.948;4.832;2024-03-23T15:18:13;3.93;;;1.20;;
8859;SDS011;4466;50.948;4.832;2024-03-23T15:20:40;3.43;;;1.13;;
8859;SDS011;4466;50.948;4.832;2024-03-23T15:23:06;5.07;;;1.43;;
8859;SDS011;4466;50.948;4.832;2024-03-23T15:25:32;4.63;;;1.30;;
8859;SDS011;4466;50.948;4.832;2024-03-23T15:27:58;5.93;;;1.40;;
8859;SDS011;4466;50.948;4.832;2024-03-23T15:30:25;4.73;;;1.57;;
8859;SDS011;4466;50.948;4.832;2024-03-23T15:32:51;5.80;;;1.67;;
8859;SDS011;4466;50.948;4.832;2024-03-23T15:35:17;4.53;;;1.47;;
8859;SDS011;4466;50.948;4.832;2024-03-23T15:37:44;4.93;;;1.70;;
8859;SDS011;4466;50.948;4.832;2024-03-23T15:40:09;4.67;;;1.43;;
8859;SDS011;4466;50.948;4.832;2024-03-23T15:42:36;4.17;;;1.40;;
8859;SDS011;4466;50.948;4.832;2024-03-23T15:45:02;6.50;;;2.00;;
8859;SDS011;4466;50.948;4.832;2024-03-23T15:47:32;4.30;;;1.40;;
8859;SDS011;4466;50.948;4.832;2024-03-23T15:49:58;5.80;;;1.40;;
8859;SDS011;4466;50.948;4.832;2024-03-23T15:52:28;4.03;;;1.30;;
8859;SDS011;4466;50.948;4.832;2024-03-23T15:54:54;4.33;;;1.43;;
8859;SDS011;4466;50.948;4.832;2024-03-23T15:57:21;5.17;;;1.80;;
8859;SDS011;4466;50.948;4.832;2024-03-23T15:59:47;2.62;;;0.78;;
8859;SDS011;4466;50.948;4.832;2024-03-23T16:02:12;2.87;;;1.17;;
8859;SDS011;4466;50.948;4.832;2024-03-23T16:04:38;4.93;;;1.10;;
8859;SDS011;4466;50.948;4.832;2024-03-23T16:07:04;2.13;;;0.80;;
8859;SDS011;4466;50.948;4.832;2024-03-23T16:09:30;2.87;;;1.00;;
8859;SDS011;4466;50.948;4.832;2024-03-23T16:11:55;2.00;;;0.90;;
8859;SDS011;4466;50.948;4.832;2024-03-23T16:14:21;2.70;;;0.83;;
8859;SDS011;4466;50.948;4.832;2024-03-23T16:16:47;2.63;;;1.17;;